10°C Temp
9°C Point de rosée
94% Humidité
Température
11 KM/H
7 MPH
6 KTS
190°
Sud

Vitesse du Vent
Pluie légère
Préssion 998.92 (hPa) - 29.5 (in)
Visibilité 6.2 (mi) - 10.0 (km)

Conditions Actuelles
LFBU
Location 6(km)
Metar :LFBU 240700Z AUTO 19006KT 150V210 9999 -RA SCT007/// BKN019/// BKN030/// ///TCU 10/09 Q0999 TEMPO 4000 RA BKN012 BKN030CB
Dernière mise à jour: 24-04-2019 10:38

Aéroport
  Métar Aviation Données API fournies par https://www.checkwx.com/ PHP scripts by weather34.com ©2019